Terminal Aerodrome Forecast
Issued by NWS

Home | Current Version | Previous Version | Text Only | Print | Product List | Glossary On
Versions: 1 2 3 4 5 6 7 8 9 10 11 12
000
FTUS46 KSTO 232300
TAFSAC
TAF
KSAC 232322Z 2400/2424 22010KT P6SM SCT250
     FM240600 18006KT P6SM BKN250
     FM242000 21010KT P6SM SCT150 OVC250=

USA.gov is the U.S. government's official web portal to all federal, state and local government web resources and services.